sensor_id;sensor_type;location;lat;lon;timestamp;P1;durP1;ratioP1;P2;durP2;ratioP2
57309;SDS011;43153;50.984;18.204;2022-07-09T00:00:14;10.40;;;2.90;;
57309;SDS011;43153;50.984;18.204;2022-07-09T00:02:58;12.20;;;4.00;;
57309;SDS011;43153;50.984;18.204;2022-07-09T00:05:43;13.40;;;6.00;;
57309;SDS011;43153;50.984;18.204;2022-07-09T00:08:27;12.30;;;5.40;;
57309;SDS011;43153;50.984;18.204;2022-07-09T00:11:11;14.20;;;5.50;;
57309;SDS011;43153;50.984;18.204;2022-07-09T00:13:55;13.00;;;3.90;;
57309;SDS011;43153;50.984;18.204;2022-07-09T00:16:40;9.50;;;2.30;;
57309;SDS011;43153;50.984;18.204;2022-07-09T00:19:24;11.20;;;2.60;;
57309;SDS011;43153;50.984;18.204;2022-07-09T00:22:08;12.70;;;2.50;;
57309;SDS011;43153;50.984;18.204;2022-07-09T00:24:53;9.40;;;1.50;;
57309;SDS011;43153;50.984;18.204;2022-07-09T00:27:37;8.30;;;2.00;;
57309;SDS011;43153;50.984;18.204;2022-07-09T00:30:22;6.30;;;1.40;;
57309;SDS011;43153;50.984;18.204;2022-07-09T00:33:06;8.00;;;1.80;;
57309;SDS011;43153;50.984;18.204;2022-07-09T00:35:50;8.80;;;1.60;;
57309;SDS011;43153;50.984;18.204;2022-07-09T00:38:35;8.20;;;1.60;;
57309;SDS011;43153;50.984;18.204;2022-07-09T00:41:20;8.50;;;1.70;;
57309;SDS011;43153;50.984;18.204;2022-07-09T00:44:04;14.30;;;2.30;;
57309;SDS011;43153;50.984;18.204;2022-07-09T00:46:48;7.10;;;1.70;;
57309;SDS011;43153;50.984;18.204;2022-07-09T00:49:41;7.60;;;1.90;;
57309;SDS011;43153;50.984;18.204;2022-07-09T00:52:25;11.10;;;2.40;;
57309;SDS011;43153;50.984;18.204;2022-07-09T00:55:11;7.70;;;1.60;;
57309;SDS011;43153;50.984;18.204;2022-07-09T00:57:55;9.90;;;2.80;;
57309;SDS011;43153;50.984;18.204;2022-07-09T01:00:40;8.80;;;2.00;;
57309;SDS011;43153;50.984;18.204;2022-07-09T01:03:25;10.10;;;2.60;;
57309;SDS011;43153;50.984;18.204;2022-07-09T01:06:09;8.50;;;3.10;;
57309;SDS011;43153;50.984;18.204;2022-07-09T01:08:55;14.50;;;3.30;;
57309;SDS011;43153;50.984;18.204;2022-07-09T01:11:40;8.60;;;3.30;;
57309;SDS011;43153;50.984;18.204;2022-07-09T01:14:24;16.10;;;3.90;;
57309;SDS011;43153;50.984;18.204;2022-07-09T01:17:09;11.30;;;4.70;;
57309;SDS011;43153;50.984;18.204;2022-07-09T01:19:54;15.10;;;6.20;;
57309;SDS011;43153;50.984;18.204;2022-07-09T01:22:38;11.60;;;3.60;;
57309;SDS011;43153;50.984;18.204;2022-07-09T01:25:27;7.50;;;3.00;;
57309;SDS011;43153;50.984;18.204;2022-07-09T01:28:13;10.00;;;2.30;;
57309;SDS011;43153;50.984;18.204;2022-07-09T01:30:57;9.10;;;2.50;;
57309;SDS011;43153;50.984;18.204;2022-07-09T01:33:42;6.70;;;1.70;;
57309;SDS011;43153;50.984;18.204;2022-07-09T01:36:26;8.10;;;2.00;;
57309;SDS011;43153;50.984;18.204;2022-07-09T01:39:10;12.70;;;2.40;;
57309;SDS011;43153;50.984;18.204;2022-07-09T01:41:55;15.80;;;2.30;;
57309;SDS011;43153;50.984;18.204;2022-07-09T01:44:39;7.80;;;2.40;;
57309;SDS011;43153;50.984;18.204;2022-07-09T01:47:23;8.60;;;2.30;;
57309;SDS011;43153;50.984;18.204;2022-07-09T01:50:07;11.50;;;2.10;;
57309;SDS011;43153;50.984;18.204;2022-07-09T01:52:52;7.40;;;2.20;;
57309;SDS011;43153;50.984;18.204;2022-07-09T01:55:36;9.90;;;3.10;;
57309;SDS011;43153;50.984;18.204;2022-07-09T01:58:21;9.60;;;2.00;;
57309;SDS011;43153;50.984;18.204;2022-07-09T02:01:05;7.60;;;2.10;;
57309;SDS011;43153;50.984;18.204;2022-07-09T02:03:50;9.70;;;2.00;;
57309;SDS011;43153;50.984;18.204;2022-07-09T02:06:34;7.30;;;1.90;;
57309;SDS011;43153;50.984;18.204;2022-07-09T02:09:19;8.00;;;2.10;;
57309;SDS011;43153;50.984;18.204;2022-07-09T02:12:04;9.30;;;2.00;;
57309;SDS011;43153;50.984;18.204;2022-07-09T02:14:49;9.30;;;2.30;;
57309;SDS011;43153;50.984;18.204;2022-07-09T02:17:34;7.30;;;2.00;;
57309;SDS011;43153;50.984;18.204;2022-07-09T02:20:18;8.10;;;2.40;;
57309;SDS011;43153;50.984;18.204;2022-07-09T02:23:03;8.40;;;2.90;;
57309;SDS011;43153;50.984;18.204;2022-07-09T02:25:47;8.90;;;2.90;;
57309;SDS011;43153;50.984;18.204;2022-07-09T02:28:32;11.50;;;2.80;;
57309;SDS011;43153;50.984;18.204;2022-07-09T02:31:16;11.80;;;2.60;;
57309;SDS011;43153;50.984;18.204;2022-07-09T02:34:00;10.30;;;2.40;;
57309;SDS011;43153;50.984;18.204;2022-07-09T02:36:44;9.50;;;2.70;;
57309;SDS011;43153;50.984;18.204;2022-07-09T02:39:28;8.90;;;2.20;;
57309;SDS011;43153;50.984;18.204;2022-07-09T02:42:13;9.20;;;2.80;;
57309;SDS011;43153;50.984;18.204;2022-07-09T02:44:58;8.60;;;2.80;;
57309;SDS011;43153;50.984;18.204;2022-07-09T02:47:42;9.40;;;2.40;;
57309;SDS011;43153;50.984;18.204;2022-07-09T02:50:30;8.00;;;2.50;;
57309;SDS011;43153;50.984;18.204;2022-07-09T02:53:15;11.70;;;2.50;;
57309;SDS011;43153;50.984;18.204;2022-07-09T02:56:00;8.90;;;2.50;;
57309;SDS011;43153;50.984;18.204;2022-07-09T02:58:45;9.90;;;2.60;;
57309;SDS011;43153;50.984;18.204;2022-07-09T03:01:30;8.60;;;3.40;;
57309;SDS011;43153;50.984;18.204;2022-07-09T03:04:14;11.00;;;2.30;;
57309;SDS011;43153;50.984;18.204;2022-07-09T03:06:58;12.40;;;2.70;;
57309;SDS011;43153;50.984;18.204;2022-07-09T03:09:42;10.40;;;3.20;;
57309;SDS011;43153;50.984;18.204;2022-07-09T03:12:27;11.20;;;3.30;;
57309;SDS011;43153;50.984;18.204;2022-07-09T03:15:11;11.00;;;2.40;;
57309;SDS011;43153;50.984;18.204;2022-07-09T03:17:58;13.70;;;3.10;;
57309;SDS011;43153;50.984;18.204;2022-07-09T03:20:42;10.60;;;3.60;;
57309;SDS011;43153;50.984;18.204;2022-07-09T03:23:26;4.90;;;1.90;;
57309;SDS011;43153;50.984;18.204;2022-07-09T03:26:11;9.50;;;2.90;;
57309;SDS011;43153;50.984;18.204;2022-07-09T03:28:55;10.80;;;2.40;;
57309;SDS011;43153;50.984;18.204;2022-07-09T03:31:39;10.40;;;2.70;;
57309;SDS011;43153;50.984;18.204;2022-07-09T03:34:24;7.30;;;2.40;;
57309;SDS011;43153;50.984;18.204;2022-07-09T03:37:08;9.20;;;2.30;;
57309;SDS011;43153;50.984;18.204;2022-07-09T03:39:52;8.60;;;2.30;;
57309;SDS011;43153;50.984;18.204;2022-07-09T03:42:37;9.50;;;2.50;;
57309;SDS011;43153;50.984;18.204;2022-07-09T03:45:22;12.30;;;2.60;;
57309;SDS011;43153;50.984;18.204;2022-07-09T03:48:06;10.80;;;3.00;;
57309;SDS011;43153;50.984;18.204;2022-07-09T03:50:51;8.70;;;2.70;;
57309;SDS011;43153;50.984;18.204;2022-07-09T03:53:35;8.90;;;2.80;;
57309;SDS011;43153;50.984;18.204;2022-07-09T03:56:20;12.00;;;2.40;;
57309;SDS011;43153;50.984;18.204;2022-07-09T03:59:05;9.10;;;2.60;;
57309;SDS011;43153;50.984;18.204;2022-07-09T04:01:50;10.50;;;2.80;;
57309;SDS011;43153;50.984;18.204;2022-07-09T04:04:34;6.90;;;1.80;;
57309;SDS011;43153;50.984;18.204;2022-07-09T04:07:18;7.40;;;1.90;;
57309;SDS011;43153;50.984;18.204;2022-07-09T04:10:04;9.40;;;2.30;;
57309;SDS011;43153;50.984;18.204;2022-07-09T04:12:49;9.10;;;1.90;;
57309;SDS011;43153;50.984;18.204;2022-07-09T04:15:33;9.60;;;2.20;;
57309;SDS011;43153;50.984;18.204;2022-07-09T04:18:17;10.90;;;2.00;;
57309;SDS011;43153;50.984;18.204;2022-07-09T04:21:01;11.80;;;2.60;;
57309;SDS011;43153;50.984;18.204;2022-07-09T04:23:49;10.00;;;2.80;;
57309;SDS011;43153;50.984;18.204;2022-07-09T04:26:34;7.90;;;1.80;;
57309;SDS011;43153;50.984;18.204;2022-07-09T04:29:19;7.10;;;1.80;;
57309;SDS011;43153;50.984;18.204;2022-07-09T04:32:03;11.20;;;2.00;;
57309;SDS011;43153;50.984;18.204;2022-07-09T04:34:47;8.60;;;1.80;;
57309;SDS011;43153;50.984;18.204;2022-07-09T04:37:32;6.70;;;1.70;;
57309;SDS011;43153;50.984;18.204;2022-07-09T04:40:16;6.70;;;1.90;;
57309;SDS011;43153;50.984;18.204;2022-07-09T04:43:01;6.50;;;1.60;;
57309;SDS011;43153;50.984;18.204;2022-07-09T04:45:45;7.80;;;2.00;;
57309;SDS011;43153;50.984;18.204;2022-07-09T04:48:29;7.60;;;1.70;;
57309;SDS011;43153;50.984;18.204;2022-07-09T04:51:13;9.00;;;1.80;;
57309;SDS011;43153;50.984;18.204;2022-07-09T04:53:58;10.90;;;1.70;;
57309;SDS011;43153;50.984;18.204;2022-07-09T04:56:42;5.30;;;1.90;;
57309;SDS011;43153;50.984;18.204;2022-07-09T04:59:26;6.00;;;1.90;;
57309;SDS011;43153;50.984;18.204;2022-07-09T05:02:11;7.80;;;2.00;;
57309;SDS011;43153;50.984;18.204;2022-07-09T05:04:55;9.40;;;1.90;;
57309;SDS011;43153;50.984;18.204;2022-07-09T05:07:40;9.30;;;2.00;;
57309;SDS011;43153;50.984;18.204;2022-07-09T05:10:28;13.10;;;3.30;;
57309;SDS011;43153;50.984;18.204;2022-07-09T05:13:12;9.00;;;2.50;;
57309;SDS011;43153;50.984;18.204;2022-07-09T05:15:57;12.50;;;2.00;;
57309;SDS011;43153;50.984;18.204;2022-07-09T05:18:41;8.10;;;2.00;;
57309;SDS011;43153;50.984;18.204;2022-07-09T05:21:26;7.00;;;2.20;;
57309;SDS011;43153;50.984;18.204;2022-07-09T05:24:10;8.70;;;1.60;;
57309;SDS011;43153;50.984;18.204;2022-07-09T05:26:54;8.90;;;2.20;;
57309;SDS011;43153;50.984;18.204;2022-07-09T05:29:39;11.70;;;2.50;;
57309;SDS011;43153;50.984;18.204;2022-07-09T05:32:24;12.80;;;2.30;;
57309;SDS011;43153;50.984;18.204;2022-07-09T05:35:08;7.10;;;2.10;;
57309;SDS011;43153;50.984;18.204;2022-07-09T05:37:52;8.40;;;2.30;;
57309;SDS011;43153;50.984;18.204;2022-07-09T05:40:37;8.50;;;2.20;;
57309;SDS011;43153;50.984;18.204;2022-07-09T05:43:21;7.30;;;2.20;;
57309;SDS011;43153;50.984;18.204;2022-07-09T05:46:05;6.90;;;1.90;;
57309;SDS011;43153;50.984;18.204;2022-07-09T05:48:50;8.70;;;1.50;;
57309;SDS011;43153;50.984;18.204;2022-07-09T05:51:35;5.70;;;1.70;;
57309;SDS011;43153;50.984;18.204;2022-07-09T05:54:20;5.90;;;1.40;;
57309;SDS011;43153;50.984;18.204;2022-07-09T05:57:04;6.70;;;1.70;;
57309;SDS011;43153;50.984;18.204;2022-07-09T05:59:50;7.30;;;2.20;;
57309;SDS011;43153;50.984;18.204;2022-07-09T06:02:35;5.60;;;1.70;;
57309;SDS011;43153;50.984;18.204;2022-07-09T06:05:19;7.10;;;2.30;;
57309;SDS011;43153;50.984;18.204;2022-07-09T06:08:05;11.10;;;2.10;;
57309;SDS011;43153;50.984;18.204;2022-07-09T06:10:49;9.80;;;1.70;;
57309;SDS011;43153;50.984;18.204;2022-07-09T06:13:33;9.30;;;1.60;;
57309;SDS011;43153;50.984;18.204;2022-07-09T06:16:17;5.20;;;1.60;;
57309;SDS011;43153;50.984;18.204;2022-07-09T06:19:01;9.20;;;2.10;;
57309;SDS011;43153;50.984;18.204;2022-07-09T06:21:46;6.50;;;2.00;;
57309;SDS011;43153;50.984;18.204;2022-07-09T06:24:31;7.70;;;1.80;;
57309;SDS011;43153;50.984;18.204;2022-07-09T06:27:15;12.60;;;3.70;;
57309;SDS011;43153;50.984;18.204;2022-07-09T06:29:59;7.70;;;2.20;;
57309;SDS011;43153;50.984;18.204;2022-07-09T06:32:43;7.70;;;1.60;;
57309;SDS011;43153;50.984;18.204;2022-07-09T06:35:27;8.90;;;2.00;;
57309;SDS011;43153;50.984;18.204;2022-07-09T06:38:11;8.20;;;1.60;;
57309;SDS011;43153;50.984;18.204;2022-07-09T06:40:56;6.40;;;1.10;;
57309;SDS011;43153;50.984;18.204;2022-07-09T06:43:40;7.20;;;1.30;;
57309;SDS011;43153;50.984;18.204;2022-07-09T06:46:24;7.10;;;1.40;;
57309;SDS011;43153;50.984;18.204;2022-07-09T06:49:10;6.80;;;1.90;;
57309;SDS011;43153;50.984;18.204;2022-07-09T06:51:54;6.30;;;1.60;;
57309;SDS011;43153;50.984;18.204;2022-07-09T06:54:39;9.50;;;1.90;;
57309;SDS011;43153;50.984;18.204;2022-07-09T06:57:24;5.00;;;1.50;;
57309;SDS011;43153;50.984;18.204;2022-07-09T07:00:08;10.20;;;2.20;;
57309;SDS011;43153;50.984;18.204;2022-07-09T07:02:52;7.00;;;1.90;;
57309;SDS011;43153;50.984;18.204;2022-07-09T07:05:37;6.80;;;1.50;;
57309;SDS011;43153;50.984;18.204;2022-07-09T07:08:21;7.10;;;1.90;;
57309;SDS011;43153;50.984;18.204;2022-07-09T07:11:05;6.50;;;1.60;;
57309;SDS011;43153;50.984;18.204;2022-07-09T07:13:50;7.30;;;1.90;;
57309;SDS011;43153;50.984;18.204;2022-07-09T07:16:34;6.30;;;1.60;;
57309;SDS011;43153;50.984;18.204;2022-07-09T07:19:19;6.60;;;2.00;;
57309;SDS011;43153;50.984;18.204;2022-07-09T07:22:06;6.40;;;1.20;;
57309;SDS011;43153;50.984;18.204;2022-07-09T07:24:51;6.60;;;1.10;;
57309;SDS011;43153;50.984;18.204;2022-07-09T07:27:35;9.70;;;1.70;;
57309;SDS011;43153;50.984;18.204;2022-07-09T07:30:19;3.80;;;0.80;;
57309;SDS011;43153;50.984;18.204;2022-07-09T07:33:03;6.10;;;1.60;;
57309;SDS011;43153;50.984;18.204;2022-07-09T07:35:49;5.20;;;1.40;;
57309;SDS011;43153;50.984;18.204;2022-07-09T07:38:34;5.40;;;1.00;;
57309;SDS011;43153;50.984;18.204;2022-07-09T07:41:18;3.60;;;0.70;;
57309;SDS011;43153;50.984;18.204;2022-07-09T07:44:04;4.60;;;0.90;;
57309;SDS011;43153;50.984;18.204;2022-07-09T07:46:49;3.50;;;0.80;;
57309;SDS011;43153;50.984;18.204;2022-07-09T07:49:33;7.20;;;0.90;;
57309;SDS011;43153;50.984;18.204;2022-07-09T07:52:17;4.70;;;0.60;;
57309;SDS011;43153;50.984;18.204;2022-07-09T07:55:02;4.30;;;0.50;;
57309;SDS011;43153;50.984;18.204;2022-07-09T07:57:46;5.30;;;0.90;;
57309;SDS011;43153;50.984;18.204;2022-07-09T08:00:30;6.40;;;1.10;;
57309;SDS011;43153;50.984;18.204;2022-07-09T08:03:15;3.70;;;0.70;;
57309;SDS011;43153;50.984;18.204;2022-07-09T08:06:00;3.10;;;0.80;;
57309;SDS011;43153;50.984;18.204;2022-07-09T08:08:44;2.20;;;0.70;;
57309;SDS011;43153;50.984;18.204;2022-07-09T08:11:28;4.90;;;1.00;;
57309;SDS011;43153;50.984;18.204;2022-07-09T08:14:13;7.80;;;1.10;;
57309;SDS011;43153;50.984;18.204;2022-07-09T08:16:57;3.70;;;0.80;;
57309;SDS011;43153;50.984;18.204;2022-07-09T08:19:41;4.00;;;0.90;;
57309;SDS011;43153;50.984;18.204;2022-07-09T08:22:26;4.80;;;1.20;;
57309;SDS011;43153;50.984;18.204;2022-07-09T08:25:10;5.30;;;0.80;;
57309;SDS011;43153;50.984;18.204;2022-07-09T08:27:54;5.90;;;1.30;;
57309;SDS011;43153;50.984;18.204;2022-07-09T08:30:38;3.10;;;0.60;;
57309;SDS011;43153;50.984;18.204;2022-07-09T08:33:22;3.80;;;0.80;;
57309;SDS011;43153;50.984;18.204;2022-07-09T08:36:07;3.70;;;0.80;;
57309;SDS011;43153;50.984;18.204;2022-07-09T08:38:51;3.80;;;0.70;;
57309;SDS011;43153;50.984;18.204;2022-07-09T08:41:35;6.70;;;1.20;;
57309;SDS011;43153;50.984;18.204;2022-07-09T08:44:20;7.20;;;1.10;;
57309;SDS011;43153;50.984;18.204;2022-07-09T08:47:06;2.50;;;0.70;;
57309;SDS011;43153;50.984;18.204;2022-07-09T08:49:54;3.50;;;0.70;;
57309;SDS011;43153;50.984;18.204;2022-07-09T08:52:39;3.80;;;0.90;;
57309;SDS011;43153;50.984;18.204;2022-07-09T08:55:23;6.70;;;0.90;;
57309;SDS011;43153;50.984;18.204;2022-07-09T08:58:08;4.30;;;0.80;;
57309;SDS011;43153;50.984;18.204;2022-07-09T09:00:53;3.90;;;0.50;;
57309;SDS011;43153;50.984;18.204;2022-07-09T09:03:41;3.90;;;0.70;;
57309;SDS011;43153;50.984;18.204;2022-07-09T09:06:25;4.50;;;0.80;;
57309;SDS011;43153;50.984;18.204;2022-07-09T09:09:16;6.10;;;1.20;;
57309;SDS011;43153;50.984;18.204;2022-07-09T09:12:02;5.70;;;1.00;;
57309;SDS011;43153;50.984;18.204;2022-07-09T09:14:49;4.10;;;0.80;;
57309;SDS011;43153;50.984;18.204;2022-07-09T09:17:33;4.90;;;0.90;;
57309;SDS011;43153;50.984;18.204;2022-07-09T09:20:18;3.30;;;0.50;;
57309;SDS011;43153;50.984;18.204;2022-07-09T09:23:03;1.90;;;0.40;;
57309;SDS011;43153;50.984;18.204;2022-07-09T09:25:53;5.80;;;1.40;;
57309;SDS011;43153;50.984;18.204;2022-07-09T09:28:59;2.80;;;0.60;;
57309;SDS011;43153;50.984;18.204;2022-07-09T09:31:44;3.10;;;0.80;;
57309;SDS011;43153;50.984;18.204;2022-07-09T09:34:29;2.80;;;0.80;;
57309;SDS011;43153;50.984;18.204;2022-07-09T09:37:13;5.10;;;1.10;;
57309;SDS011;43153;50.984;18.204;2022-07-09T09:39:57;6.10;;;1.30;;
57309;SDS011;43153;50.984;18.204;2022-07-09T09:42:42;4.60;;;1.20;;
57309;SDS011;43153;50.984;18.204;2022-07-09T09:45:28;8.00;;;1.70;;
57309;SDS011;43153;50.984;18.204;2022-07-09T09:48:13;3.70;;;0.70;;
57309;SDS011;43153;50.984;18.204;2022-07-09T09:50:59;4.40;;;0.90;;
57309;SDS011;43153;50.984;18.204;2022-07-09T09:53:45;3.30;;;0.80;;
57309;SDS011;43153;50.984;18.204;2022-07-09T09:56:30;1.90;;;0.50;;
57309;SDS011;43153;50.984;18.204;2022-07-09T09:59:16;3.20;;;0.60;;
57309;SDS011;43153;50.984;18.204;2022-07-09T10:02:00;4.80;;;0.60;;
57309;SDS011;43153;50.984;18.204;2022-07-09T10:04:45;4.30;;;0.60;;
57309;SDS011;43153;50.984;18.204;2022-07-09T10:07:30;1.50;;;0.50;;
57309;SDS011;43153;50.984;18.204;2022-07-09T10:10:17;4.00;;;0.60;;
57309;SDS011;43153;50.984;18.204;2022-07-09T10:13:02;4.10;;;0.80;;
57309;SDS011;43153;50.984;18.204;2022-07-09T10:15:49;1.50;;;0.40;;
57309;SDS011;43153;50.984;18.204;2022-07-09T10:18:33;4.10;;;0.80;;
57309;SDS011;43153;50.984;18.204;2022-07-09T10:21:17;4.00;;;0.70;;
57309;SDS011;43153;50.984;18.204;2022-07-09T10:24:05;3.10;;;0.60;;
57309;SDS011;43153;50.984;18.204;2022-07-09T10:26:49;4.80;;;0.90;;
57309;SDS011;43153;50.984;18.204;2022-07-09T10:29:35;3.10;;;0.70;;
57309;SDS011;43153;50.984;18.204;2022-07-09T10:32:30;3.80;;;0.70;;
57309;SDS011;43153;50.984;18.204;2022-07-09T10:35:14;4.50;;;0.80;;
57309;SDS011;43153;50.984;18.204;2022-07-09T10:37:58;2.40;;;0.70;;
57309;SDS011;43153;50.984;18.204;2022-07-09T10:40:44;3.00;;;0.70;;
57309;SDS011;43153;50.984;18.204;2022-07-09T10:46:22;3.20;;;0.60;;
57309;SDS011;43153;50.984;18.204;2022-07-09T10:49:06;2.50;;;0.60;;
57309;SDS011;43153;50.984;18.204;2022-07-09T10:51:54;1.60;;;0.50;;
57309;SDS011;43153;50.984;18.204;2022-07-09T10:54:45;5.80;;;0.70;;
57309;SDS011;43153;50.984;18.204;2022-07-09T11:00:15;2.10;;;0.50;;
57309;SDS011;43153;50.984;18.204;2022-07-09T11:03:03;2.60;;;0.50;;
57309;SDS011;43153;50.984;18.204;2022-07-09T11:05:49;3.40;;;0.40;;
57309;SDS011;43153;50.984;18.204;2022-07-09T11:08:33;4.00;;;0.50;;
57309;SDS011;43153;50.984;18.204;2022-07-09T11:11:24;4.40;;;0.70;;
57309;SDS011;43153;50.984;18.204;2022-07-09T11:14:09;4.90;;;0.80;;
57309;SDS011;43153;50.984;18.204;2022-07-09T11:16:54;3.50;;;0.50;;
57309;SDS011;43153;50.984;18.204;2022-07-09T11:19:38;2.10;;;0.50;;
57309;SDS011;43153;50.984;18.204;2022-07-09T11:22:23;2.40;;;0.50;;
57309;SDS011;43153;50.984;18.204;2022-07-09T11:25:07;2.30;;;0.50;;
57309;SDS011;43153;50.984;18.204;2022-07-09T11:27:59;5.40;;;0.70;;
57309;SDS011;43153;50.984;18.204;2022-07-09T11:30:44;4.70;;;0.80;;
57309;SDS011;43153;50.984;18.204;2022-07-09T11:33:28;4.50;;;0.80;;
57309;SDS011;43153;50.984;18.204;2022-07-09T11:36:40;3.90;;;0.80;;
57309;SDS011;43153;50.984;18.204;2022-07-09T11:42:08;2.90;;;0.60;;
57309;SDS011;43153;50.984;18.204;2022-07-09T11:45:00;4.00;;;0.80;;
57309;SDS011;43153;50.984;18.204;2022-07-09T11:47:46;4.30;;;0.80;;
57309;SDS011;43153;50.984;18.204;2022-07-09T11:50:30;2.80;;;0.60;;
57309;SDS011;43153;50.984;18.204;2022-07-09T11:53:19;5.50;;;2.10;;
57309;SDS011;43153;50.984;18.204;2022-07-09T11:56:03;2.80;;;0.80;;
57309;SDS011;43153;50.984;18.204;2022-07-09T11:58:51;2.90;;;0.80;;
57309;SDS011;43153;50.984;18.204;2022-07-09T12:01:36;2.90;;;0.70;;
57309;SDS011;43153;50.984;18.204;2022-07-09T12:04:21;3.20;;;0.60;;
57309;SDS011;43153;50.984;18.204;2022-07-09T12:07:09;2.30;;;0.60;;
57309;SDS011;43153;50.984;18.204;2022-07-09T12:10:04;3.60;;;0.50;;
57309;SDS011;43153;50.984;18.204;2022-07-09T12:12:50;4.50;;;0.90;;
57309;SDS011;43153;50.984;18.204;2022-07-09T12:15:34;4.80;;;0.90;;
57309;SDS011;43153;50.984;18.204;2022-07-09T12:18:19;3.20;;;0.80;;
57309;SDS011;43153;50.984;18.204;2022-07-09T12:21:03;2.80;;;0.70;;
57309;SDS011;43153;50.984;18.204;2022-07-09T12:23:48;3.30;;;0.60;;
57309;SDS011;43153;50.984;18.204;2022-07-09T12:26:32;3.70;;;0.70;;
57309;SDS011;43153;50.984;18.204;2022-07-09T12:29:17;3.40;;;0.70;;
57309;SDS011;43153;50.984;18.204;2022-07-09T12:32:01;5.30;;;0.80;;
57309;SDS011;43153;50.984;18.204;2022-07-09T12:34:46;3.50;;;0.70;;
57309;SDS011;43153;50.984;18.204;2022-07-09T12:37:30;3.90;;;0.60;;
57309;SDS011;43153;50.984;18.204;2022-07-09T12:40:14;2.40;;;0.70;;
57309;SDS011;43153;50.984;18.204;2022-07-09T12:42:59;2.50;;;0.60;;
57309;SDS011;43153;50.984;18.204;2022-07-09T12:45:43;2.90;;;0.70;;
57309;SDS011;43153;50.984;18.204;2022-07-09T12:48:27;3.20;;;0.80;;
57309;SDS011;43153;50.984;18.204;2022-07-09T12:51:12;8.00;;;1.40;;
57309;SDS011;43153;50.984;18.204;2022-07-09T12:53:57;4.10;;;1.00;;
57309;SDS011;43153;50.984;18.204;2022-07-09T12:56:41;5.30;;;1.10;;
57309;SDS011;43153;50.984;18.204;2022-07-09T12:59:25;3.40;;;1.00;;
57309;SDS011;43153;50.984;18.204;2022-07-09T13:02:10;2.90;;;1.30;;
57309;SDS011;43153;50.984;18.204;2022-07-09T13:04:55;3.00;;;1.00;;
57309;SDS011;43153;50.984;18.204;2022-07-09T13:07:39;3.50;;;0.90;;
57309;SDS011;43153;50.984;18.204;2022-07-09T13:10:23;2.70;;;0.60;;
57309;SDS011;43153;50.984;18.204;2022-07-09T13:13:08;2.30;;;0.60;;
57309;SDS011;43153;50.984;18.204;2022-07-09T13:15:52;3.80;;;0.80;;
57309;SDS011;43153;50.984;18.204;2022-07-09T13:18:36;3.00;;;0.80;;
57309;SDS011;43153;50.984;18.204;2022-07-09T13:21:21;6.00;;;1.10;;
57309;SDS011;43153;50.984;18.204;2022-07-09T13:24:06;3.80;;;0.90;;
57309;SDS011;43153;50.984;18.204;2022-07-09T13:26:51;12.20;;;1.50;;
57309;SDS011;43153;50.984;18.204;2022-07-09T13:29:35;3.80;;;0.90;;
57309;SDS011;43153;50.984;18.204;2022-07-09T13:32:20;4.20;;;1.40;;
57309;SDS011;43153;50.984;18.204;2022-07-09T13:35:05;5.20;;;1.30;;
57309;SDS011;43153;50.984;18.204;2022-07-09T13:37:49;5.20;;;1.10;;
57309;SDS011;43153;50.984;18.204;2022-07-09T13:40:33;3.50;;;0.90;;
57309;SDS011;43153;50.984;18.204;2022-07-09T13:43:19;4.70;;;1.00;;
57309;SDS011;43153;50.984;18.204;2022-07-09T13:46:03;3.60;;;0.70;;
57309;SDS011;43153;50.984;18.204;2022-07-09T13:48:48;3.50;;;0.70;;
57309;SDS011;43153;50.984;18.204;2022-07-09T13:51:33;3.00;;;0.70;;
57309;SDS011;43153;50.984;18.204;2022-07-09T13:54:18;5.60;;;0.90;;
57309;SDS011;43153;50.984;18.204;2022-07-09T13:57:03;2.30;;;0.50;;
57309;SDS011;43153;50.984;18.204;2022-07-09T13:59:48;3.50;;;0.60;;
57309;SDS011;43153;50.984;18.204;2022-07-09T14:02:32;2.00;;;0.40;;
57309;SDS011;43153;50.984;18.204;2022-07-09T14:05:17;1.90;;;0.60;;
57309;SDS011;43153;50.984;18.204;2022-07-09T14:08:01;10.40;;;0.90;;
57309;SDS011;43153;50.984;18.204;2022-07-09T14:10:45;4.50;;;0.80;;
57309;SDS011;43153;50.984;18.204;2022-07-09T14:13:30;3.90;;;0.60;;
57309;SDS011;43153;50.984;18.204;2022-07-09T14:16:15;2.90;;;0.70;;
57309;SDS011;43153;50.984;18.204;2022-07-09T14:18:59;5.10;;;0.50;;
57309;SDS011;43153;50.984;18.204;2022-07-09T14:21:44;4.40;;;0.70;;
57309;SDS011;43153;50.984;18.204;2022-07-09T14:24:28;6.00;;;0.80;;
57309;SDS011;43153;50.984;18.204;2022-07-09T14:27:12;3.40;;;0.80;;
57309;SDS011;43153;50.984;18.204;2022-07-09T14:29:56;4.60;;;1.40;;
57309;SDS011;43153;50.984;18.204;2022-07-09T14:32:40;2.80;;;0.80;;
57309;SDS011;43153;50.984;18.204;2022-07-09T14:35:25;3.30;;;0.60;;
57309;SDS011;43153;50.984;18.204;2022-07-09T14:38:10;4.70;;;0.70;;
57309;SDS011;43153;50.984;18.204;2022-07-09T14:40:54;3.90;;;0.70;;
57309;SDS011;43153;50.984;18.204;2022-07-09T14:43:39;5.20;;;1.20;;
57309;SDS011;43153;50.984;18.204;2022-07-09T14:46:24;2.60;;;0.70;;
57309;SDS011;43153;50.984;18.204;2022-07-09T14:49:08;5.30;;;0.70;;
57309;SDS011;43153;50.984;18.204;2022-07-09T14:51:52;2.50;;;0.70;;
57309;SDS011;43153;50.984;18.204;2022-07-09T14:54:37;2.70;;;0.60;;
57309;SDS011;43153;50.984;18.204;2022-07-09T14:57:21;2.60;;;0.60;;
57309;SDS011;43153;50.984;18.204;2022-07-09T15:00:07;4.10;;;0.80;;
57309;SDS011;43153;50.984;18.204;2022-07-09T15:02:52;8.00;;;1.20;;
57309;SDS011;43153;50.984;18.204;2022-07-09T15:05:36;5.60;;;1.10;;
57309;SDS011;43153;50.984;18.204;2022-07-09T15:08:21;3.70;;;1.00;;
57309;SDS011;43153;50.984;18.204;2022-07-09T15:11:05;4.50;;;1.10;;
57309;SDS011;43153;50.984;18.204;2022-07-09T15:13:49;5.30;;;0.90;;
57309;SDS011;43153;50.984;18.204;2022-07-09T15:16:34;3.00;;;0.60;;
57309;SDS011;43153;50.984;18.204;2022-07-09T15:19:18;5.00;;;0.80;;
57309;SDS011;43153;50.984;18.204;2022-07-09T15:22:03;6.10;;;0.70;;
57309;SDS011;43153;50.984;18.204;2022-07-09T15:24:47;4.00;;;0.80;;
57309;SDS011;43153;50.984;18.204;2022-07-09T15:27:32;4.70;;;0.80;;
57309;SDS011;43153;50.984;18.204;2022-07-09T15:30:16;5.70;;;0.90;;
57309;SDS011;43153;50.984;18.204;2022-07-09T15:33:06;6.10;;;1.10;;
57309;SDS011;43153;50.984;18.204;2022-07-09T15:35:51;8.40;;;1.40;;
57309;SDS011;43153;50.984;18.204;2022-07-09T15:38:35;6.20;;;1.40;;
57309;SDS011;43153;50.984;18.204;2022-07-09T15:41:19;4.30;;;0.90;;
57309;SDS011;43153;50.984;18.204;2022-07-09T15:44:03;5.80;;;1.20;;
57309;SDS011;43153;50.984;18.204;2022-07-09T15:46:48;5.50;;;1.40;;
57309;SDS011;43153;50.984;18.204;2022-07-09T15:49:33;6.00;;;1.10;;
57309;SDS011;43153;50.984;18.204;2022-07-09T15:52:17;3.00;;;1.00;;
57309;SDS011;43153;50.984;18.204;2022-07-09T15:55:04;4.00;;;1.20;;
57309;SDS011;43153;50.984;18.204;2022-07-09T15:57:48;4.10;;;0.90;;
57309;SDS011;43153;50.984;18.204;2022-07-09T16:00:33;4.70;;;1.00;;
57309;SDS011;43153;50.984;18.204;2022-07-09T16:03:17;5.60;;;1.30;;
57309;SDS011;43153;50.984;18.204;2022-07-09T16:06:02;5.00;;;0.90;;
57309;SDS011;43153;50.984;18.204;2022-07-09T16:08:46;4.20;;;0.90;;
57309;SDS011;43153;50.984;18.204;2022-07-09T16:11:31;3.10;;;1.00;;
57309;SDS011;43153;50.984;18.204;2022-07-09T16:14:34;3.20;;;1.00;;
57309;SDS011;43153;50.984;18.204;2022-07-09T16:17:19;5.20;;;1.30;;
57309;SDS011;43153;50.984;18.204;2022-07-09T16:20:05;6.50;;;1.40;;
57309;SDS011;43153;50.984;18.204;2022-07-09T16:22:50;4.10;;;1.00;;
57309;SDS011;43153;50.984;18.204;2022-07-09T16:25:35;5.20;;;1.40;;